sensor_id;sensor_type;location;lat;lon;timestamp;P1;durP1;ratioP1;P2;durP2;ratioP2
20042;SDS011;10182;52.896;6.496;2023-03-01T00:03:30;17.10;;;14.50;;
20042;SDS011;10182;52.896;6.496;2023-03-01T00:08:33;27.03;;;19.83;;
20042;SDS011;10182;52.896;6.496;2023-03-01T00:13:35;30.40;;;24.30;;
20042;SDS011;10182;52.896;6.496;2023-03-01T00:18:39;34.30;;;25.20;;
20042;SDS011;10182;52.896;6.496;2023-03-01T00:23:41;33.77;;;24.43;;
20042;SDS011;10182;52.896;6.496;2023-03-01T00:28:44;31.57;;;24.10;;
20042;SDS011;10182;52.896;6.496;2023-03-01T00:33:48;33.10;;;23.80;;
20042;SDS011;10182;52.896;6.496;2023-03-01T00:38:50;26.13;;;21.07;;
20042;SDS011;10182;52.896;6.496;2023-03-01T00:43:52;27.13;;;20.43;;
20042;SDS011;10182;52.896;6.496;2023-03-01T00:48:56;61.17;;;21.90;;
20042;SDS011;10182;52.896;6.496;2023-03-01T00:53:58;43.00;;;19.83;;
20042;SDS011;10182;52.896;6.496;2023-03-01T00:59:02;32.80;;;20.17;;
20042;SDS011;10182;52.896;6.496;2023-03-01T01:04:07;28.90;;;19.90;;
20042;SDS011;10182;52.896;6.496;2023-03-01T01:09:10;33.67;;;21.20;;
20042;SDS011;10182;52.896;6.496;2023-03-01T01:14:18;31.47;;;21.00;;
20042;SDS011;10182;52.896;6.496;2023-03-01T01:19:24;42.93;;;24.47;;
20042;SDS011;10182;52.896;6.496;2023-03-01T01:24:26;320.80;;;37.87;;
20042;SDS011;10182;52.896;6.496;2023-03-01T01:29:28;316.10;;;38.57;;
20042;SDS011;10182;52.896;6.496;2023-03-01T01:34:31;176.63;;;34.27;;
20042;SDS011;10182;52.896;6.496;2023-03-01T01:39:33;107.73;;;32.47;;
20042;SDS011;10182;52.896;6.496;2023-03-01T01:44:35;153.20;;;34.83;;
20042;SDS011;10182;52.896;6.496;2023-03-01T01:49:39;127.67;;;33.07;;
20042;SDS011;10182;52.896;6.496;2023-03-01T01:54:45;65.60;;;28.13;;
20042;SDS011;10182;52.896;6.496;2023-03-01T01:59:52;251.00;;;37.77;;
20042;SDS011;10182;52.896;6.496;2023-03-01T02:05:05;97.37;;;29.67;;
20042;SDS011;10182;52.896;6.496;2023-03-01T02:10:13;95.83;;;30.27;;
20042;SDS011;10182;52.896;6.496;2023-03-01T02:15:15;74.80;;;28.20;;
20042;SDS011;10182;52.896;6.496;2023-03-01T02:20:19;107.90;;;30.10;;
20042;SDS011;10182;52.896;6.496;2023-03-01T02:25:34;91.33;;;29.00;;
20042;SDS011;10182;52.896;6.496;2023-03-01T02:30:43;34.87;;;25.10;;
20042;SDS011;10182;52.896;6.496;2023-03-01T02:36:01;51.33;;;25.70;;
20042;SDS011;10182;52.896;6.496;2023-03-01T02:41:08;60.60;;;26.57;;
20042;SDS011;10182;52.896;6.496;2023-03-01T02:46:16;71.17;;;28.13;;
20042;SDS011;10182;52.896;6.496;2023-03-01T02:51:29;35.43;;;26.10;;
20042;SDS011;10182;52.896;6.496;2023-03-01T02:56:43;42.87;;;28.27;;
20042;SDS011;10182;52.896;6.496;2023-03-01T03:01:49;38.17;;;25.67;;
20042;SDS011;10182;52.896;6.496;2023-03-01T03:06:51;33.60;;;26.10;;
20042;SDS011;10182;52.896;6.496;2023-03-01T03:11:53;33.73;;;23.87;;
20042;SDS011;10182;52.896;6.496;2023-03-01T03:16:56;32.87;;;23.07;;
20042;SDS011;10182;52.896;6.496;2023-03-01T03:21:58;41.33;;;23.23;;
20042;SDS011;10182;52.896;6.496;2023-03-01T03:27:00;57.10;;;23.30;;
20042;SDS011;10182;52.896;6.496;2023-03-01T03:32:03;36.00;;;23.87;;
20042;SDS011;10182;52.896;6.496;2023-03-01T03:37:05;32.30;;;22.63;;
20042;SDS011;10182;52.896;6.496;2023-03-01T03:42:30;31.87;;;23.13;;
20042;SDS011;10182;52.896;6.496;2023-03-01T03:47:33;30.20;;;22.87;;
20042;SDS011;10182;52.896;6.496;2023-03-01T03:52:35;29.83;;;24.00;;
20042;SDS011;10182;52.896;6.496;2023-03-01T03:57:37;32.83;;;24.77;;
20042;SDS011;10182;52.896;6.496;2023-03-01T04:02:40;28.60;;;21.63;;
20042;SDS011;10182;52.896;6.496;2023-03-01T04:07:43;28.57;;;23.07;;
20042;SDS011;10182;52.896;6.496;2023-03-01T04:12:46;28.13;;;22.90;;
20042;SDS011;10182;52.896;6.496;2023-03-01T04:17:49;30.13;;;23.70;;
20042;SDS011;10182;52.896;6.496;2023-03-01T04:22:56;27.47;;;22.20;;
20042;SDS011;10182;52.896;6.496;2023-03-01T04:27:59;27.67;;;22.20;;
20042;SDS011;10182;52.896;6.496;2023-03-01T04:33:04;26.67;;;22.17;;
20042;SDS011;10182;52.896;6.496;2023-03-01T04:38:07;28.70;;;22.83;;
20042;SDS011;10182;52.896;6.496;2023-03-01T04:43:09;25.53;;;21.20;;
20042;SDS011;10182;52.896;6.496;2023-03-01T04:48:13;26.10;;;21.03;;
20042;SDS011;10182;52.896;6.496;2023-03-01T04:53:15;28.63;;;21.97;;
20042;SDS011;10182;52.896;6.496;2023-03-01T04:58:18;29.73;;;23.17;;
20042;SDS011;10182;52.896;6.496;2023-03-01T05:03:22;27.00;;;21.80;;
20042;SDS011;10182;52.896;6.496;2023-03-01T05:08:23;25.17;;;20.93;;
20042;SDS011;10182;52.896;6.496;2023-03-01T05:13:25;25.27;;;21.27;;
20042;SDS011;10182;52.896;6.496;2023-03-01T05:18:33;26.20;;;20.50;;
20042;SDS011;10182;52.896;6.496;2023-03-01T05:23:35;24.83;;;19.63;;
20042;SDS011;10182;52.896;6.496;2023-03-01T05:28:40;24.27;;;21.07;;
20042;SDS011;10182;52.896;6.496;2023-03-01T05:33:43;24.30;;;20.37;;
20042;SDS011;10182;52.896;6.496;2023-03-01T05:38:45;22.17;;;18.83;;
20042;SDS011;10182;52.896;6.496;2023-03-01T05:43:47;26.00;;;21.10;;
20042;SDS011;10182;52.896;6.496;2023-03-01T05:48:51;26.20;;;21.20;;
20042;SDS011;10182;52.896;6.496;2023-03-01T05:53:53;26.03;;;20.37;;
20042;SDS011;10182;52.896;6.496;2023-03-01T05:58:54;25.77;;;21.30;;
20042;SDS011;10182;52.896;6.496;2023-03-01T06:03:58;29.70;;;21.37;;
20042;SDS011;10182;52.896;6.496;2023-03-01T06:09:00;27.47;;;22.47;;
20042;SDS011;10182;52.896;6.496;2023-03-01T06:14:02;27.63;;;21.90;;
20042;SDS011;10182;52.896;6.496;2023-03-01T06:19:06;29.83;;;21.70;;
20042;SDS011;10182;52.896;6.496;2023-03-01T06:24:08;27.27;;;21.90;;
20042;SDS011;10182;52.896;6.496;2023-03-01T06:29:11;32.83;;;23.77;;
20042;SDS011;10182;52.896;6.496;2023-03-01T06:34:16;27.37;;;21.73;;
20042;SDS011;10182;52.896;6.496;2023-03-01T06:39:20;29.10;;;21.57;;
20042;SDS011;10182;52.896;6.496;2023-03-01T06:44:32;26.03;;;20.67;;
20042;SDS011;10182;52.896;6.496;2023-03-01T06:49:48;30.17;;;22.30;;
20042;SDS011;10182;52.896;6.496;2023-03-01T06:54:55;29.40;;;22.73;;
20042;SDS011;10182;52.896;6.496;2023-03-01T06:59:59;23.47;;;19.70;;
20042;SDS011;10182;52.896;6.496;2023-03-01T07:05:15;26.53;;;20.13;;
20042;SDS011;10182;52.896;6.496;2023-03-01T07:10:17;26.93;;;21.33;;
20042;SDS011;10182;52.896;6.496;2023-03-01T07:15:19;29.10;;;21.73;;
20042;SDS011;10182;52.896;6.496;2023-03-01T07:20:25;27.07;;;21.10;;
20042;SDS011;10182;52.896;6.496;2023-03-01T07:25:32;30.53;;;22.27;;
20042;SDS011;10182;52.896;6.496;2023-03-01T07:30:34;28.13;;;21.30;;
20042;SDS011;10182;52.896;6.496;2023-03-01T07:35:40;26.13;;;20.67;;
20042;SDS011;10182;52.896;6.496;2023-03-01T07:40:48;28.57;;;20.97;;
20042;SDS011;10182;52.896;6.496;2023-03-01T07:45:53;27.53;;;21.63;;
20042;SDS011;10182;52.896;6.496;2023-03-01T07:50:58;29.73;;;23.20;;
20042;SDS011;10182;52.896;6.496;2023-03-01T07:56:01;34.77;;;28.07;;
20042;SDS011;10182;52.896;6.496;2023-03-01T08:01:07;37.13;;;27.60;;
20042;SDS011;10182;52.896;6.496;2023-03-01T08:06:20;36.10;;;26.97;;
20042;SDS011;10182;52.896;6.496;2023-03-01T08:11:30;41.63;;;27.63;;
20042;SDS011;10182;52.896;6.496;2023-03-01T08:16:33;36.27;;;27.07;;
20042;SDS011;10182;52.896;6.496;2023-03-01T08:21:39;36.47;;;26.93;;
20042;SDS011;10182;52.896;6.496;2023-03-01T08:26:50;51.87;;;32.67;;
20042;SDS011;10182;52.896;6.496;2023-03-01T08:31:52;45.20;;;31.10;;
20042;SDS011;10182;52.896;6.496;2023-03-01T08:37:01;54.10;;;34.90;;
20042;SDS011;10182;52.896;6.496;2023-03-01T08:42:10;57.10;;;37.07;;
20042;SDS011;10182;52.896;6.496;2023-03-01T08:47:18;59.40;;;39.37;;
20042;SDS011;10182;52.896;6.496;2023-03-01T08:52:36;58.50;;;38.13;;
20042;SDS011;10182;52.896;6.496;2023-03-01T08:57:38;60.23;;;41.23;;
20042;SDS011;10182;52.896;6.496;2023-03-01T09:02:40;53.60;;;36.43;;
20042;SDS011;10182;52.896;6.496;2023-03-01T09:07:53;54.03;;;36.10;;
20042;SDS011;10182;52.896;6.496;2023-03-01T09:12:57;53.47;;;35.97;;
20042;SDS011;10182;52.896;6.496;2023-03-01T09:18:01;55.37;;;36.77;;
20042;SDS011;10182;52.896;6.496;2023-03-01T09:23:04;57.83;;;35.27;;
20042;SDS011;10182;52.896;6.496;2023-03-01T09:28:12;56.37;;;36.53;;
20042;SDS011;10182;52.896;6.496;2023-03-01T09:33:17;51.27;;;34.70;;
20042;SDS011;10182;52.896;6.496;2023-03-01T09:38:25;47.63;;;34.17;;
20042;SDS011;10182;52.896;6.496;2023-03-01T09:43:31;46.90;;;33.60;;
20042;SDS011;10182;52.896;6.496;2023-03-01T09:48:59;44.30;;;32.23;;
20042;SDS011;10182;52.896;6.496;2023-03-01T09:54:06;41.30;;;28.53;;
20042;SDS011;10182;52.896;6.496;2023-03-01T09:59:15;40.87;;;28.43;;
20042;SDS011;10182;52.896;6.496;2023-03-01T10:04:30;38.60;;;27.63;;
20042;SDS011;10182;52.896;6.496;2023-03-01T10:09:56;36.27;;;28.17;;
20042;SDS011;10182;52.896;6.496;2023-03-01T10:15:02;35.83;;;24.73;;
20042;SDS011;10182;52.896;6.496;2023-03-01T10:20:17;29.40;;;21.77;;
20042;SDS011;10182;52.896;6.496;2023-03-01T10:25:36;29.23;;;21.13;;
20042;SDS011;10182;52.896;6.496;2023-03-01T10:30:58;29.07;;;18.30;;
20042;SDS011;10182;52.896;6.496;2023-03-01T10:36:19;18.90;;;13.80;;
20042;SDS011;10182;52.896;6.496;2023-03-01T10:41:30;16.03;;;11.07;;
20042;SDS011;10182;52.896;6.496;2023-03-01T10:46:32;16.83;;;12.23;;
20042;SDS011;10182;52.896;6.496;2023-03-01T10:51:36;13.30;;;9.90;;
20042;SDS011;10182;52.896;6.496;2023-03-01T10:56:47;15.17;;;12.60;;
20042;SDS011;10182;52.896;6.496;2023-03-01T11:02:04;15.67;;;13.13;;
20042;SDS011;10182;52.896;6.496;2023-03-01T11:07:16;18.33;;;14.10;;
20042;SDS011;10182;52.896;6.496;2023-03-01T11:12:24;16.20;;;14.20;;
20042;SDS011;10182;52.896;6.496;2023-03-01T11:17:33;18.07;;;13.43;;
20042;SDS011;10182;52.896;6.496;2023-03-01T11:22:43;18.70;;;14.57;;
20042;SDS011;10182;52.896;6.496;2023-03-01T11:28:04;17.00;;;12.63;;
20042;SDS011;10182;52.896;6.496;2023-03-01T11:33:17;17.73;;;14.80;;
20042;SDS011;10182;52.896;6.496;2023-03-01T11:38:29;16.47;;;13.00;;
20042;SDS011;10182;52.896;6.496;2023-03-01T11:43:50;14.23;;;11.57;;
20042;SDS011;10182;52.896;6.496;2023-03-01T11:49:12;14.37;;;12.37;;
20042;SDS011;10182;52.896;6.496;2023-03-01T11:54:43;16.17;;;13.20;;
20042;SDS011;10182;52.896;6.496;2023-03-01T12:00:05;12.67;;;9.57;;
20042;SDS011;10182;52.896;6.496;2023-03-01T12:11:08;13.37;;;10.47;;
20042;SDS011;10182;52.896;6.496;2023-03-01T12:22:29;19.87;;;14.67;;
20042;SDS011;10182;52.896;6.496;2023-03-01T12:27:48;18.67;;;13.70;;
20042;SDS011;10182;52.896;6.496;2023-03-01T12:33:14;16.83;;;13.60;;
20042;SDS011;10182;52.896;6.496;2023-03-01T12:38:30;22.20;;;14.37;;
20042;SDS011;10182;52.896;6.496;2023-03-01T12:43:43;17.40;;;14.30;;
20042;SDS011;10182;52.896;6.496;2023-03-01T12:49:05;20.37;;;15.10;;
20042;SDS011;10182;52.896;6.496;2023-03-01T12:54:19;18.47;;;14.43;;
20042;SDS011;10182;52.896;6.496;2023-03-01T12:59:28;16.73;;;13.43;;
20042;SDS011;10182;52.896;6.496;2023-03-01T13:04:43;17.90;;;14.13;;
20042;SDS011;10182;52.896;6.496;2023-03-01T13:10:06;18.00;;;15.00;;
20042;SDS011;10182;52.896;6.496;2023-03-01T13:15:28;19.77;;;15.83;;
20042;SDS011;10182;52.896;6.496;2023-03-01T13:20:33;19.10;;;15.27;;
20042;SDS011;10182;52.896;6.496;2023-03-01T13:26:06;20.17;;;15.50;;
20042;SDS011;10182;52.896;6.496;2023-03-01T13:37:32;22.77;;;16.53;;
20042;SDS011;10182;52.896;6.496;2023-03-01T13:42:39;19.70;;;15.83;;
20042;SDS011;10182;52.896;6.496;2023-03-01T13:47:43;23.00;;;16.47;;
20042;SDS011;10182;52.896;6.496;2023-03-01T13:52:49;21.27;;;16.00;;
20042;SDS011;10182;52.896;6.496;2023-03-01T13:57:57;21.00;;;16.03;;
20042;SDS011;10182;52.896;6.496;2023-03-01T14:03:08;21.20;;;16.43;;
20042;SDS011;10182;52.896;6.496;2023-03-01T14:08:21;21.63;;;15.43;;
20042;SDS011;10182;52.896;6.496;2023-03-01T14:13:44;16.23;;;12.70;;
20042;SDS011;10182;52.896;6.496;2023-03-01T14:19:07;17.83;;;12.70;;
20042;SDS011;10182;52.896;6.496;2023-03-01T14:24:27;11.97;;;10.03;;
20042;SDS011;10182;52.896;6.496;2023-03-01T14:29:35;11.97;;;10.07;;
20042;SDS011;10182;52.896;6.496;2023-03-01T14:34:48;10.77;;;9.27;;
20042;SDS011;10182;52.896;6.496;2023-03-01T14:39:56;13.23;;;9.33;;
20042;SDS011;10182;52.896;6.496;2023-03-01T14:45:00;14.10;;;11.30;;
20042;SDS011;10182;52.896;6.496;2023-03-01T14:50:15;13.27;;;11.40;;
20042;SDS011;10182;52.896;6.496;2023-03-01T14:55:34;14.83;;;11.73;;
20042;SDS011;10182;52.896;6.496;2023-03-01T15:00:50;12.53;;;10.60;;
20042;SDS011;10182;52.896;6.496;2023-03-01T15:06:04;13.90;;;11.20;;
20042;SDS011;10182;52.896;6.496;2023-03-01T15:11:20;13.93;;;11.60;;
20042;SDS011;10182;52.896;6.496;2023-03-01T15:16:30;14.50;;;11.53;;
20042;SDS011;10182;52.896;6.496;2023-03-01T15:21:52;12.67;;;11.23;;
20042;SDS011;10182;52.896;6.496;2023-03-01T15:27:01;13.83;;;11.13;;
20042;SDS011;10182;52.896;6.496;2023-03-01T15:32:22;14.83;;;10.73;;
20042;SDS011;10182;52.896;6.496;2023-03-01T15:37:40;16.30;;;11.13;;
20042;SDS011;10182;52.896;6.496;2023-03-01T15:42:53;13.33;;;11.17;;
20042;SDS011;10182;52.896;6.496;2023-03-01T15:47:58;15.03;;;11.83;;
20042;SDS011;10182;52.896;6.496;2023-03-01T15:53:07;17.70;;;13.17;;
20042;SDS011;10182;52.896;6.496;2023-03-01T15:58:15;15.87;;;12.83;;
20042;SDS011;10182;52.896;6.496;2023-03-01T16:03:25;17.70;;;13.07;;
20042;SDS011;10182;52.896;6.496;2023-03-01T16:08:27;16.80;;;13.17;;
20042;SDS011;10182;52.896;6.496;2023-03-01T16:13:29;16.57;;;13.57;;
20042;SDS011;10182;52.896;6.496;2023-03-01T16:18:33;17.63;;;13.87;;
20042;SDS011;10182;52.896;6.496;2023-03-01T16:23:36;18.17;;;14.77;;
20042;SDS011;10182;52.896;6.496;2023-03-01T16:28:45;19.83;;;14.37;;
20042;SDS011;10182;52.896;6.496;2023-03-01T16:33:48;20.90;;;14.23;;
20042;SDS011;10182;52.896;6.496;2023-03-01T16:38:57;17.80;;;14.67;;
20042;SDS011;10182;52.896;6.496;2023-03-01T16:44:07;17.53;;;14.63;;
20042;SDS011;10182;52.896;6.496;2023-03-01T16:49:38;21.50;;;16.00;;
20042;SDS011;10182;52.896;6.496;2023-03-01T16:54:48;19.70;;;14.73;;
20042;SDS011;10182;52.896;6.496;2023-03-01T17:00:01;21.60;;;16.23;;
20042;SDS011;10182;52.896;6.496;2023-03-01T17:05:09;19.63;;;15.47;;
20042;SDS011;10182;52.896;6.496;2023-03-01T17:10:12;21.27;;;16.70;;
20042;SDS011;10182;52.896;6.496;2023-03-01T17:15:16;24.57;;;17.43;;
20042;SDS011;10182;52.896;6.496;2023-03-01T17:20:34;24.50;;;17.27;;
20042;SDS011;10182;52.896;6.496;2023-03-01T17:25:47;24.47;;;17.40;;
20042;SDS011;10182;52.896;6.496;2023-03-01T17:30:58;24.23;;;18.23;;
20042;SDS011;10182;52.896;6.496;2023-03-01T17:36:09;23.47;;;18.33;;
20042;SDS011;10182;52.896;6.496;2023-03-01T17:41:13;26.20;;;18.57;;
20042;SDS011;10182;52.896;6.496;2023-03-01T17:46:31;24.07;;;19.00;;
20042;SDS011;10182;52.896;6.496;2023-03-01T17:51:35;26.17;;;19.13;;
20042;SDS011;10182;52.896;6.496;2023-03-01T17:56:37;26.30;;;19.00;;
20042;SDS011;10182;52.896;6.496;2023-03-01T18:01:46;26.40;;;19.07;;
20042;SDS011;10182;52.896;6.496;2023-03-01T18:06:53;26.20;;;19.40;;
20042;SDS011;10182;52.896;6.496;2023-03-01T18:12:04;29.00;;;20.70;;
20042;SDS011;10182;52.896;6.496;2023-03-01T18:17:10;25.73;;;19.40;;
20042;SDS011;10182;52.896;6.496;2023-03-01T18:22:13;28.10;;;20.07;;
20042;SDS011;10182;52.896;6.496;2023-03-01T18:27:22;27.27;;;20.83;;
20042;SDS011;10182;52.896;6.496;2023-03-01T18:32:36;30.83;;;21.63;;
20042;SDS011;10182;52.896;6.496;2023-03-01T18:38:04;28.50;;;21.53;;
20042;SDS011;10182;52.896;6.496;2023-03-01T18:43:11;27.10;;;20.40;;
20042;SDS011;10182;52.896;6.496;2023-03-01T18:48:27;29.60;;;21.40;;
20042;SDS011;10182;52.896;6.496;2023-03-01T18:53:42;28.57;;;22.50;;
20042;SDS011;10182;52.896;6.496;2023-03-01T18:58:46;27.87;;;21.27;;
20042;SDS011;10182;52.896;6.496;2023-03-01T19:03:48;30.13;;;23.37;;
20042;SDS011;10182;52.896;6.496;2023-03-01T19:08:52;29.07;;;23.50;;
20042;SDS011;10182;52.896;6.496;2023-03-01T19:13:55;34.93;;;23.73;;
20042;SDS011;10182;52.896;6.496;2023-03-01T19:19:00;29.30;;;23.50;;
20042;SDS011;10182;52.896;6.496;2023-03-01T19:24:09;30.60;;;23.67;;
20042;SDS011;10182;52.896;6.496;2023-03-01T19:29:12;28.27;;;22.67;;
20042;SDS011;10182;52.896;6.496;2023-03-01T19:34:14;30.80;;;24.60;;
20042;SDS011;10182;52.896;6.496;2023-03-01T19:39:24;31.83;;;24.17;;
20042;SDS011;10182;52.896;6.496;2023-03-01T19:44:35;33.33;;;24.87;;
20042;SDS011;10182;52.896;6.496;2023-03-01T19:50:02;35.23;;;26.67;;
20042;SDS011;10182;52.896;6.496;2023-03-01T19:55:17;31.30;;;24.50;;
20042;SDS011;10182;52.896;6.496;2023-03-01T20:00:24;35.30;;;26.33;;
20042;SDS011;10182;52.896;6.496;2023-03-01T20:05:44;33.07;;;26.10;;
20042;SDS011;10182;52.896;6.496;2023-03-01T20:11:03;34.47;;;26.13;;
20042;SDS011;10182;52.896;6.496;2023-03-01T20:16:33;35.13;;;26.43;;
20042;SDS011;10182;52.896;6.496;2023-03-01T20:21:50;36.83;;;28.03;;
20042;SDS011;10182;52.896;6.496;2023-03-01T20:27:14;40.13;;;28.37;;
20042;SDS011;10182;52.896;6.496;2023-03-01T20:32:37;44.10;;;29.83;;
20042;SDS011;10182;52.896;6.496;2023-03-01T20:43:05;47.70;;;32.50;;
20042;SDS011;10182;52.896;6.496;2023-03-01T20:48:09;49.57;;;32.63;;
20042;SDS011;10182;52.896;6.496;2023-03-01T20:53:13;51.67;;;33.53;;
20042;SDS011;10182;52.896;6.496;2023-03-01T20:58:45;48.17;;;31.80;;
20042;SDS011;10182;52.896;6.496;2023-03-01T21:03:55;49.13;;;32.83;;
20042;SDS011;10182;52.896;6.496;2023-03-01T21:09:00;51.33;;;33.53;;
20042;SDS011;10182;52.896;6.496;2023-03-01T21:14:11;49.47;;;34.03;;
20042;SDS011;10182;52.896;6.496;2023-03-01T21:19:15;47.57;;;32.50;;
20042;SDS011;10182;52.896;6.496;2023-03-01T21:24:30;52.57;;;33.50;;
20042;SDS011;10182;52.896;6.496;2023-03-01T21:29:37;51.60;;;34.40;;
20042;SDS011;10182;52.896;6.496;2023-03-01T21:34:43;55.53;;;33.00;;
20042;SDS011;10182;52.896;6.496;2023-03-01T21:39:50;54.97;;;35.53;;
20042;SDS011;10182;52.896;6.496;2023-03-01T21:44:57;53.97;;;33.80;;
20042;SDS011;10182;52.896;6.496;2023-03-01T21:50:07;57.47;;;35.57;;
20042;SDS011;10182;52.896;6.496;2023-03-01T21:55:15;55.70;;;35.57;;
20042;SDS011;10182;52.896;6.496;2023-03-01T22:00:24;50.70;;;32.60;;
20042;SDS011;10182;52.896;6.496;2023-03-01T22:05:31;52.50;;;33.70;;
20042;SDS011;10182;52.896;6.496;2023-03-01T22:10:38;52.77;;;34.13;;
20042;SDS011;10182;52.896;6.496;2023-03-01T22:15:44;53.97;;;34.40;;
20042;SDS011;10182;52.896;6.496;2023-03-01T22:20:53;53.40;;;33.93;;
20042;SDS011;10182;52.896;6.496;2023-03-01T22:25:55;50.10;;;31.63;;
20042;SDS011;10182;52.896;6.496;2023-03-01T22:31:06;50.03;;;32.33;;
20042;SDS011;10182;52.896;6.496;2023-03-01T22:36:13;55.00;;;33.13;;
20042;SDS011;10182;52.896;6.496;2023-03-01T22:41:33;49.97;;;30.90;;
20042;SDS011;10182;52.896;6.496;2023-03-01T22:46:44;50.60;;;32.37;;
20042;SDS011;10182;52.896;6.496;2023-03-01T22:51:52;47.10;;;31.47;;
20042;SDS011;10182;52.896;6.496;2023-03-01T22:56:55;49.23;;;32.10;;
20042;SDS011;10182;52.896;6.496;2023-03-01T23:01:58;50.73;;;32.53;;
20042;SDS011;10182;52.896;6.496;2023-03-01T23:07:03;48.67;;;32.20;;
20042;SDS011;10182;52.896;6.496;2023-03-01T23:12:08;54.17;;;32.87;;
20042;SDS011;10182;52.896;6.496;2023-03-01T23:17:14;51.47;;;33.70;;
20042;SDS011;10182;52.896;6.496;2023-03-01T23:22:19;57.97;;;34.73;;
20042;SDS011;10182;52.896;6.496;2023-03-01T23:27:21;51.40;;;32.47;;
20042;SDS011;10182;52.896;6.496;2023-03-01T23:32:31;55.97;;;34.00;;
20042;SDS011;10182;52.896;6.496;2023-03-01T23:37:42;54.67;;;33.90;;
20042;SDS011;10182;52.896;6.496;2023-03-01T23:42:58;52.30;;;33.47;;
20042;SDS011;10182;52.896;6.496;2023-03-01T23:48:04;50.93;;;31.90;;
20042;SDS011;10182;52.896;6.496;2023-03-01T23:53:09;52.07;;;33.13;;
20042;SDS011;10182;52.896;6.496;2023-03-01T23:58:12;48.13;;;32.13;;
